VIB weather

Public forecast

Using degrees Celsius for public forecast. Weather courtesy of forecast.io.

Closest aviation weather report (METAR) to Villa Constitución Airport

Closest report is Loreto International Airport, 59.0 nm (109.3 km) NNE. Retrieved 2020/08/14 19:46 UTC (30 minutes ago):

MMLT 141946Z 12016KT 10SM FEW050 SCT240 33/26 A2990 RMK 8/102

Closest aviation forecast (TAF) to Villa Constitución Airport

Closest forecast is Loreto International Airport, 59.0 nm (109.3 km) NNE. Retrieved 2020/08/14 18:08 UTC (2 hours ago):

TAF MMLT 141702Z 1418/1518 13010KT P6SM SCT030 SCT100 FM150400 20005KT P6SM SCT020 BKN080